SLCP

Details ICAO SLCP
Name Concepcion
Region Bolivia
Timezone America/La_Paz (UTC-4.0)
Plans Departing 7
Arriving 9
Stats Elevation 1,621 ft / 494 m (AMSL)
Location -16.146944° -62.021667°
Runways 1
Magnetic Variation 13.204° W
Sunrise 2018-05-22 10:27:12 UTC / 2018-05-22 06:27:12 Local
Sunset 2018-05-22 21:45:11 UTC / 2018-05-22 17:45:11 Local
Advertisement - Login to hide

Runways

ID Width Length Bearing (true) Bearing (mag) Surface Threshold Offset Overrun Length
16 82 ft / 25 m 5,745 ft / 1,751 m 152.00° 165.20° Concrete 0 ft / 0 m 0 ft / 0 m
34 82 ft / 25 m 5,745 ft / 1,751 m 332.00° 345.20° Concrete 0 ft / 0 m 0 ft / 0 m

Map

Weather


0- 5 10 15 20 25 30 35+ Temperature / ° C

Clouds and Precipitation
Forecast for 2018-05-22 12:00 UTC. Updated an hour ago

Ground ~20,000 ft ~40,000 ft Winds

METAR

SLCP 221200Z 00000KT 9999 NSC 17/15 Q1020

TAF

Not found
Warning: Do not use this data for real-world aviation or navigation. No guarantee of current accuracy is given.